createdAt,value
2018-10-09T00:01:56.338Z,50.30
2018-10-09T00:04:25.056Z,50.67
2018-10-09T00:06:53.768Z,51.20
2018-10-09T00:09:22.484Z,49.30
2018-10-09T00:11:51.197Z,51.07
2018-10-09T00:14:19.921Z,48.67
2018-10-09T00:16:48.628Z,47.80
2018-10-09T00:19:17.335Z,48.37
2018-10-09T00:21:46.044Z,48.40
2018-10-09T00:24:14.752Z,47.53
2018-10-09T00:26:43.528Z,48.67
2018-10-09T00:29:12.241Z,48.80
2018-10-09T00:31:40.956Z,49.47
2018-10-09T00:34:09.659Z,48.67
2018-10-09T00:36:38.423Z,47.90
2018-10-09T00:39:08.399Z,48.00
2018-10-09T00:41:37.760Z,47.83
2018-10-09T00:44:06.579Z,49.37
2018-10-09T00:46:35.291Z,47.17
2018-10-09T00:49:04.038Z,48.53
2018-10-09T00:51:32.743Z,48.13
2018-10-09T00:54:01.463Z,49.17
2018-10-09T00:56:30.159Z,50.23
2018-10-09T00:58:58.884Z,49.07
2018-10-09T01:01:27.592Z,49.63
2018-10-09T01:03:56.303Z,47.57
2018-10-09T01:06:25.015Z,53.43
2018-10-09T01:08:53.725Z,49.10
2018-10-09T01:11:22.433Z,49.63
2018-10-09T01:13:51.154Z,48.13
2018-10-09T01:16:19.863Z,48.23
2018-10-09T01:18:48.568Z,46.87
2018-10-09T01:21:17.283Z,47.73
2018-10-09T01:23:45.987Z,47.23
2018-10-09T01:26:14.727Z,48.63
2018-10-09T01:28:43.435Z,47.73
2018-10-09T01:31:12.144Z,47.63
2018-10-09T01:33:40.851Z,48.07
2018-10-09T01:36:09.598Z,49.80
2018-10-09T01:38:38.296Z,48.37
2018-10-09T01:41:07.027Z,49.40
2018-10-09T01:43:35.743Z,48.97
2018-10-09T01:46:04.453Z,48.60
2018-10-09T01:48:33.152Z,47.80
2018-10-09T01:51:01.908Z,48.93
2018-10-09T01:53:30.616Z,47.73
2018-10-09T01:55:59.319Z,48.03
2018-10-09T01:58:28.016Z,49.03
2018-10-09T02:00:56.731Z,48.03
2018-10-09T02:03:25.440Z,48.40
2018-10-09T02:05:54.152Z,47.87
2018-10-09T02:08:22.859Z,47.73
2018-10-09T02:10:51.588Z,46.80
2018-10-09T02:13:20.284Z,47.30
2018-10-09T02:15:48.999Z,47.60
2018-10-09T02:18:17.704Z,47.00
2018-10-09T02:20:46.412Z,47.40
2018-10-09T02:23:15.116Z,48.43
2018-10-09T02:25:43.841Z,46.63
2018-10-09T02:28:12.550Z,47.23
2018-10-09T02:30:41.252Z,46.80
2018-10-09T02:33:09.967Z,50.07
2018-10-09T02:35:38.873Z,48.07
2018-10-09T02:38:07.584Z,46.27
2018-10-09T02:40:36.287Z,46.43
2018-10-09T02:43:04.992Z,46.83
2018-10-09T02:45:33.704Z,47.10
2018-10-09T02:48:02.451Z,46.87
2018-10-09T02:50:31.396Z,50.13
2018-10-09T02:53:00.060Z,49.63
2018-10-09T02:55:28.784Z,48.80
2018-10-09T02:57:57.484Z,46.60
2018-10-09T03:00:26.200Z,47.87
2018-10-09T03:02:54.914Z,48.03
2018-10-09T03:05:23.627Z,50.47
2018-10-09T03:07:52.328Z,47.37
2018-10-09T03:10:21.048Z,46.13
2018-10-09T03:12:49.793Z,46.23
2018-10-09T03:15:18.486Z,47.20
2018-10-09T03:17:47.196Z,47.43
2018-10-09T03:20:15.936Z,46.47
2018-10-09T03:22:44.651Z,46.93
2018-10-09T03:25:13.355Z,46.20
2018-10-09T03:27:42.063Z,47.30
2018-10-09T03:30:11.673Z,46.67
2018-10-09T03:32:40.379Z,46.37
2018-10-09T03:35:09.084Z,46.07
2018-10-09T03:37:37.945Z,49.73
2018-10-09T03:40:06.676Z,47.83
2018-10-09T03:42:35.395Z,49.17
2018-10-09T03:45:04.112Z,50.83
2018-10-09T03:47:32.998Z,47.13
2018-10-09T03:50:01.719Z,46.80
2018-10-09T03:52:30.439Z,47.67
2018-10-09T03:54:59.143Z,47.63
2018-10-09T03:57:27.847Z,47.50
2018-10-09T03:59:56.551Z,46.70
2018-10-09T04:02:25.263Z,47.83
2018-10-09T04:04:53.979Z,48.77
2018-10-09T04:07:22.991Z,46.83
2018-10-09T04:09:51.712Z,46.93
2018-10-09T04:12:20.412Z,49.27
2018-10-09T04:14:49.151Z,46.13
2018-10-09T04:17:17.856Z,45.80
2018-10-09T04:19:46.556Z,48.40
2018-10-09T04:22:20.299Z,47.37
2018-10-09T04:24:49.120Z,47.03
2018-10-09T04:27:18.224Z,47.07
2018-10-09T04:29:47.011Z,47.23
2018-10-09T04:32:15.716Z,46.80
2018-10-09T04:34:44.483Z,47.27
2018-10-09T04:37:13.228Z,46.37
2018-10-09T04:39:41.944Z,45.93
2018-10-09T04:42:10.660Z,46.43
2018-10-09T04:44:39.360Z,46.30
2018-10-09T04:47:08.080Z,46.60
2018-10-09T04:49:36.804Z,46.63
2018-10-09T04:52:05.527Z,46.50
2018-10-09T04:54:34.235Z,46.53
2018-10-09T04:57:02.999Z,46.47
2018-10-09T04:59:31.735Z,46.00
2018-10-09T05:02:00.447Z,46.00
2018-10-09T05:04:29.163Z,49.33
2018-10-09T05:06:57.880Z,46.07
2018-10-09T05:09:26.580Z,48.07
2018-10-09T05:11:55.324Z,53.60
2018-10-09T05:14:24.031Z,47.00
2018-10-09T05:16:52.735Z,46.20
2018-10-09T05:19:21.448Z,47.30
2018-10-09T05:21:50.160Z,47.40
2018-10-09T05:24:18.869Z,45.80
2018-10-09T05:26:47.576Z,47.20
2018-10-09T05:29:16.304Z,47.43
2018-10-09T05:31:45.010Z,46.40
2018-10-09T05:34:13.719Z,47.40
2018-10-09T05:36:42.435Z,46.73
2018-10-09T05:39:11.144Z,46.30
2018-10-09T05:41:39.844Z,49.47
2018-10-09T05:44:08.567Z,46.87
2018-10-09T05:46:37.267Z,45.73
2018-10-09T05:49:06.044Z,50.87
2018-10-09T05:51:34.743Z,46.60
2018-10-09T05:54:03.455Z,45.33
2018-10-09T05:56:32.171Z,48.97
2018-10-09T05:59:00.887Z,49.43
2018-10-09T06:01:29.629Z,47.90
2018-10-09T06:03:58.344Z,47.07
2018-10-09T06:06:27.039Z,46.93
2018-10-09T06:08:55.747Z,46.97
2018-10-09T06:11:24.459Z,47.47
2018-10-09T06:13:53.172Z,45.40
2018-10-09T06:16:21.888Z,46.07
2018-10-09T06:18:50.601Z,46.03
2018-10-09T06:21:19.308Z,46.27
2018-10-09T06:23:48.060Z,45.00
2018-10-09T06:26:16.731Z,48.63
2018-10-09T06:28:45.588Z,46.20
2018-10-09T06:31:14.295Z,46.03
2018-10-09T06:33:43.004Z,44.57
2018-10-09T06:36:11.724Z,44.97
2018-10-09T06:38:40.477Z,48.90
2018-10-09T06:41:09.222Z,51.23
2018-10-09T06:43:37.907Z,45.50
2018-10-09T06:46:06.624Z,45.70
2018-10-09T06:48:35.327Z,47.03
2018-10-09T06:51:04.059Z,48.80
2018-10-09T06:53:32.834Z,45.37
2018-10-09T06:56:01.480Z,59.00
2018-10-09T06:58:30.215Z,45.77
2018-10-09T07:00:58.928Z,47.50
2018-10-09T07:03:27.628Z,51.10
2018-10-09T07:05:56.349Z,46.87
2018-10-09T07:08:25.061Z,47.53
2018-10-09T07:10:53.804Z,52.50
2018-10-09T07:13:22.481Z,48.23
2018-10-09T07:15:51.193Z,46.20
2018-10-09T07:18:19.907Z,47.17
2018-10-09T07:20:48.616Z,48.23
2018-10-09T07:23:17.322Z,46.30
2018-10-09T07:25:46.038Z,47.73
2018-10-09T07:28:14.780Z,50.97
2018-10-09T07:30:43.497Z,49.57
2018-10-09T07:33:12.209Z,50.07
2018-10-09T07:35:42.544Z,51.60
2018-10-09T07:38:11.256Z,52.37
2018-10-09T07:40:39.968Z,51.47
2018-10-09T07:43:08.675Z,53.93
2018-10-09T07:45:37.388Z,51.17
2018-10-09T07:48:06.088Z,55.97
2018-10-09T07:50:34.816Z,50.57
2018-10-09T07:53:03.524Z,52.17
2018-10-09T07:55:32.239Z,60.37
2018-10-09T07:58:00.962Z,62.57
2018-10-09T08:00:29.660Z,53.37
2018-10-09T08:02:58.375Z,52.07
2018-10-09T08:05:27.079Z,51.67
2018-10-09T08:07:55.796Z,53.20
2018-10-09T08:10:24.542Z,64.87
2018-10-09T08:12:53.220Z,55.93
2018-10-09T08:15:21.993Z,57.40
2018-10-09T08:17:50.692Z,59.17
2018-10-09T08:20:19.401Z,53.17
2018-10-09T08:22:48.134Z,64.17
2018-10-09T08:25:16.811Z,59.27
2018-10-09T08:27:45.524Z,57.33
2018-10-09T08:30:14.223Z,58.63
2018-10-09T08:32:42.933Z,58.67
2018-10-09T08:35:11.668Z,64.13
2018-10-09T08:37:40.387Z,56.33
2018-10-09T08:40:09.182Z,61.53
2018-10-09T08:42:37.848Z,57.97
2018-10-09T08:45:06.688Z,55.00
2018-10-09T08:47:35.408Z,57.80
2018-10-09T08:50:04.305Z,56.67
2018-10-09T08:52:33.021Z,56.80
2018-10-09T08:55:01.736Z,64.30
2018-10-09T08:57:30.490Z,52.80
2018-10-09T08:59:59.158Z,59.30
2018-10-09T09:02:27.872Z,60.70
2018-10-09T09:04:56.613Z,62.10
2018-10-09T09:07:25.332Z,57.60
2018-10-09T09:09:54.040Z,56.13
2018-10-09T09:12:22.777Z,61.40
2018-10-09T09:14:51.492Z,63.03
2018-10-09T09:17:20.209Z,59.33
2018-10-09T09:19:48.916Z,65.50
2018-10-09T09:22:17.619Z,57.73
2018-10-09T09:24:46.335Z,67.17
2018-10-09T09:27:15.271Z,65.10
2018-10-09T09:29:43.795Z,61.90
2018-10-09T09:32:12.535Z,61.47
2018-10-09T09:34:41.229Z,58.60
2018-10-09T09:37:09.936Z,62.20
2018-10-09T09:39:38.652Z,61.77
2018-10-09T09:42:07.367Z,60.70
2018-10-09T09:44:36.088Z,58.30
2018-10-09T09:47:04.807Z,59.80
2018-10-09T09:49:33.521Z,58.07
2018-10-09T09:52:02.281Z,60.37
2018-10-09T09:54:30.968Z,60.87
2018-10-09T09:56:59.685Z,65.80
2018-10-09T09:59:28.408Z,57.57
2018-10-09T10:01:57.116Z,64.27
2018-10-09T10:04:26.555Z,55.87
2018-10-09T10:06:55.256Z,60.30
2018-10-09T10:09:24.014Z,62.87
2018-10-09T10:11:52.743Z,57.63
2018-10-09T10:14:21.464Z,60.23
2018-10-09T10:16:50.448Z,59.97
2018-10-09T10:19:19.148Z,63.73
2018-10-09T10:21:47.862Z,60.07
2018-10-09T10:24:16.584Z,65.37
2018-10-09T10:26:45.296Z,61.07
2018-10-09T10:29:14.100Z,59.63
2018-10-09T10:31:42.739Z,59.87
2018-10-09T10:34:11.460Z,62.30
2018-10-09T10:36:40.218Z,61.03
2018-10-09T10:39:10.308Z,69.70
2018-10-09T10:41:39.015Z,65.90
2018-10-09T10:44:07.732Z,63.27
2018-10-09T10:46:38.700Z,66.10
2018-10-09T10:49:09.517Z,65.57
2018-10-09T10:51:38.324Z,66.17
2018-10-09T10:54:07.216Z,69.07
2018-10-09T10:56:36.313Z,67.53
2018-10-09T10:59:05.207Z,64.43
2018-10-09T11:01:34.034Z,62.50
2018-10-09T11:04:02.859Z,63.77
2018-10-09T11:06:31.566Z,65.53
2018-10-09T11:09:00.270Z,65.53
2018-10-09T11:11:28.996Z,69.07
2018-10-09T11:13:57.712Z,63.93
2018-10-09T11:16:26.424Z,62.07
2018-10-09T11:18:55.153Z,59.43
2018-10-09T11:21:24.020Z,59.27
2018-10-09T11:23:52.583Z,65.27
2018-10-09T11:26:21.301Z,62.80
2018-10-09T11:28:50.023Z,63.60
2018-10-09T11:31:18.764Z,63.10
2018-10-09T11:33:47.477Z,59.43
2018-10-09T11:36:16.185Z,63.30
2018-10-09T11:38:44.893Z,59.77
2018-10-09T11:41:13.631Z,62.37
2018-10-09T11:43:42.352Z,63.53
2018-10-09T11:46:11.068Z,62.87
2018-10-09T11:48:39.801Z,63.67
2018-10-09T11:51:08.508Z,71.73
2018-10-09T11:53:37.215Z,60.50
2018-10-09T11:56:06.005Z,59.83
2018-10-09T11:58:34.765Z,68.27
2018-10-09T12:01:06.563Z,69.30
2018-10-09T12:03:35.759Z,60.13
2018-10-09T12:06:04.659Z,63.20
2018-10-09T12:08:33.487Z,61.13
2018-10-09T12:11:02.602Z,65.73
2018-10-09T12:13:31.391Z,60.47
2018-10-09T12:16:00.163Z,60.97
2018-10-09T12:18:28.859Z,65.60
2018-10-09T12:20:57.581Z,63.60
2018-10-09T12:23:26.304Z,62.43
2018-10-09T12:25:55.044Z,63.87
2018-10-09T12:28:23.764Z,67.10
2018-10-09T12:30:52.519Z,68.57
2018-10-09T12:33:21.233Z,59.40
2018-10-09T12:35:49.936Z,62.73
2018-10-09T12:38:18.696Z,59.23
2018-10-09T12:40:47.480Z,63.23
2018-10-09T12:43:16.177Z,67.17
2018-10-09T12:45:44.872Z,66.10
2018-10-09T12:48:14.188Z,60.57
2018-10-09T12:50:42.888Z,63.00
2018-10-09T12:53:11.583Z,71.33
2018-10-09T12:55:40.284Z,67.27
2018-10-09T12:58:08.960Z,61.33
2018-10-09T13:00:37.664Z,64.03
2018-10-09T13:03:06.400Z,63.97
2018-10-09T13:05:35.081Z,66.57
2018-10-09T13:08:03.768Z,69.17
2018-10-09T13:10:32.473Z,66.87
2018-10-09T13:13:01.181Z,70.13
2018-10-09T13:15:29.904Z,64.33
2018-10-09T13:17:58.600Z,59.77
2018-10-09T13:20:27.308Z,65.70
2018-10-09T13:22:56.154Z,63.47
2018-10-09T13:25:24.968Z,61.07
2018-10-09T13:27:53.765Z,60.20
2018-10-09T13:30:22.460Z,59.10
2018-10-09T13:32:51.144Z,60.07
2018-10-09T13:35:19.836Z,58.30
2018-10-09T13:37:48.520Z,62.60
2018-10-09T13:40:17.224Z,66.30
2018-10-09T13:42:46.165Z,59.53
2018-10-09T13:45:14.872Z,61.50
2018-10-09T13:47:43.595Z,64.50
2018-10-09T13:50:12.313Z,62.37
2018-10-09T13:52:41.000Z,58.27
2018-10-09T13:55:09.732Z,62.23
2018-10-09T13:57:39.721Z,58.70
2018-10-09T14:00:08.408Z,59.23
2018-10-09T14:02:37.105Z,61.67
2018-10-09T14:05:05.849Z,74.93
2018-10-09T14:07:34.540Z,60.97
2018-10-09T14:10:03.254Z,68.90
2018-10-09T14:12:31.943Z,60.73
2018-10-09T14:15:00.713Z,69.73
2018-10-09T14:17:29.384Z,61.13
2018-10-09T14:19:58.076Z,63.37
2018-10-09T14:22:26.819Z,56.23
2018-10-09T14:24:55.488Z,59.87
2018-10-09T14:27:24.196Z,65.90
2018-10-09T14:29:52.889Z,60.63
2018-10-09T14:32:21.581Z,65.20
2018-10-09T14:34:50.308Z,58.10
2018-10-09T14:37:19.056Z,58.97
2018-10-09T14:39:47.780Z,61.63
2018-10-09T14:42:16.788Z,58.50
2018-10-09T14:44:45.484Z,59.77
2018-10-09T14:47:14.381Z,60.40
2018-10-09T14:49:43.060Z,57.30
2018-10-09T14:52:11.769Z,62.90
2018-10-09T14:54:40.462Z,58.77
2018-10-09T14:57:09.171Z,58.73
2018-10-09T14:59:37.857Z,59.10
2018-10-09T15:02:06.896Z,59.63
2018-10-09T15:04:35.601Z,57.30
2018-10-09T15:07:04.319Z,57.40
2018-10-09T15:09:33.053Z,59.90
2018-10-09T15:12:01.808Z,59.57
2018-10-09T15:14:30.517Z,56.70
2018-10-09T15:16:59.306Z,56.77
2018-10-09T15:19:27.972Z,60.33
2018-10-09T15:21:56.762Z,55.63
2018-10-09T15:24:25.468Z,57.70
2018-10-09T15:26:54.164Z,61.53
2018-10-09T15:29:24.539Z,59.37
2018-10-09T15:31:53.661Z,58.77
2018-10-09T15:34:22.352Z,57.93
2018-10-09T15:36:51.057Z,56.57
2018-10-09T15:39:19.772Z,57.03
2018-10-09T15:41:48.714Z,55.97
2018-10-09T15:44:17.468Z,56.00
2018-10-09T15:46:46.188Z,57.50
2018-10-09T15:49:18.947Z,61.43
2018-10-09T15:51:47.611Z,64.63
2018-10-09T15:54:16.301Z,56.87
2018-10-09T15:56:45.164Z,60.73
2018-10-09T15:59:15.712Z,63.30
2018-10-09T16:01:44.381Z,61.73
2018-10-09T16:04:13.105Z,62.33
2018-10-09T16:06:41.772Z,64.03
2018-10-09T16:09:11.268Z,59.23
2018-10-09T16:11:39.984Z,61.90
2018-10-09T16:14:08.700Z,60.20
2018-10-09T16:16:37.432Z,58.53
2018-10-09T16:19:06.475Z,59.67
2018-10-09T16:21:35.163Z,58.80
2018-10-09T16:24:04.081Z,61.97
2018-10-09T16:26:32.781Z,59.27
2018-10-09T16:29:01.486Z,62.00
2018-10-09T16:31:30.177Z,60.57
2018-10-09T16:33:58.872Z,60.27
2018-10-09T16:36:27.593Z,58.57
2018-10-09T16:38:56.304Z,59.23
2018-10-09T16:41:24.997Z,55.50
2018-10-09T16:43:53.736Z,57.83
2018-10-09T16:46:22.430Z,58.13
2018-10-09T16:48:51.125Z,61.47
2018-10-09T16:51:19.953Z,53.77
2018-10-09T16:53:48.656Z,57.10
2018-10-09T16:56:17.364Z,58.37
2018-10-09T16:58:46.980Z,57.70
2018-10-09T17:01:15.670Z,55.47
2018-10-09T17:03:44.376Z,55.83
2018-10-09T17:06:13.071Z,53.57
2018-10-09T17:08:41.816Z,56.80
2018-10-09T17:11:10.523Z,58.07
2018-10-09T17:13:39.220Z,54.43
2018-10-09T17:16:08.024Z,55.60
2018-10-09T17:18:36.733Z,54.43
2018-10-09T17:21:05.498Z,53.93
2018-10-09T17:23:34.408Z,55.40
2018-10-09T17:26:03.125Z,54.93
2018-10-09T17:28:31.943Z,54.70
2018-10-09T17:31:00.540Z,54.83
2018-10-09T17:33:29.271Z,55.00
2018-10-09T17:35:57.950Z,55.43
2018-10-09T17:38:26.644Z,53.63
2018-10-09T17:40:55.352Z,53.63
2018-10-09T17:43:24.052Z,53.20
2018-10-09T17:45:52.741Z,56.93
2018-10-09T17:48:21.440Z,55.77
2018-10-09T17:50:50.128Z,55.33
2018-10-09T17:53:18.821Z,54.80
2018-10-09T17:55:47.528Z,55.33
2018-10-09T17:58:16.225Z,55.67
2018-10-09T18:00:44.936Z,56.97
2018-10-09T18:03:14.240Z,55.57
2018-10-09T18:05:42.889Z,54.87
2018-10-09T18:08:11.618Z,55.20
2018-10-09T18:10:40.326Z,57.33
2018-10-09T18:13:09.157Z,53.83
2018-10-09T18:15:37.859Z,54.13
2018-10-09T18:18:06.732Z,57.30
2018-10-09T18:20:35.431Z,55.47
2018-10-09T18:23:04.116Z,53.93
2018-10-09T18:25:32.816Z,55.10
2018-10-09T18:28:01.512Z,56.87
2018-10-09T18:30:30.208Z,54.30
2018-10-09T18:32:58.977Z,55.43
2018-10-09T18:35:27.602Z,54.57
2018-10-09T18:37:56.313Z,55.07
2018-10-09T18:40:25.010Z,54.37
2018-10-09T18:42:53.703Z,53.67
2018-10-09T18:45:22.409Z,53.57
2018-10-09T18:47:51.112Z,54.07
2018-10-09T18:50:19.801Z,53.03
2018-10-09T18:52:48.492Z,53.57
2018-10-09T18:55:17.863Z,52.90
2018-10-09T18:57:46.736Z,53.57
2018-10-09T19:00:15.632Z,53.30
2018-10-09T19:02:44.329Z,53.77
2018-10-09T19:05:13.066Z,53.83
2018-10-09T19:07:41.756Z,54.03
2018-10-09T19:10:10.697Z,54.73
2018-10-09T19:12:44.620Z,53.07
2018-10-09T19:15:13.376Z,56.23
2018-10-09T19:17:42.087Z,56.13
2018-10-09T19:20:10.844Z,54.97
2018-10-09T19:22:39.499Z,54.10
2018-10-09T19:25:08.440Z,55.23
2018-10-09T19:27:37.136Z,56.50
2018-10-09T19:30:06.274Z,56.73
2018-10-09T19:32:35.028Z,57.13
2018-10-09T19:35:03.685Z,55.80
2018-10-09T19:37:32.380Z,57.67
2018-10-09T19:40:01.084Z,57.80
2018-10-09T19:42:29.775Z,57.53
2018-10-09T19:44:58.484Z,57.63
2018-10-09T19:47:27.183Z,58.17
2018-10-09T19:49:55.880Z,59.00
2018-10-09T19:52:24.580Z,58.10
2018-10-09T19:54:53.276Z,60.27
2018-10-09T19:57:21.980Z,55.43
2018-10-09T19:59:50.684Z,62.73
2018-10-09T20:02:19.392Z,58.43
2018-10-09T20:04:48.092Z,56.53
2018-10-09T20:07:16.796Z,59.03
2018-10-09T20:09:45.484Z,55.73
2018-10-09T20:12:14.216Z,58.03
2018-10-09T20:14:43.164Z,54.90
2018-10-09T20:17:11.871Z,58.53
2018-10-09T20:19:40.560Z,55.23
2018-10-09T20:22:10.475Z,57.07
2018-10-09T20:24:39.400Z,54.77
2018-10-09T20:27:08.064Z,55.20
2018-10-09T20:29:36.753Z,55.70
2018-10-09T20:32:05.461Z,59.23
2018-10-09T20:34:34.167Z,57.30
2018-10-09T20:37:02.861Z,58.57
2018-10-09T20:39:31.556Z,56.67
2018-10-09T20:42:00.357Z,58.20
2018-10-09T20:44:28.985Z,56.57
2018-10-09T20:46:57.688Z,58.00
2018-10-09T20:49:26.387Z,56.67
2018-10-09T20:51:55.083Z,57.03
2018-10-09T20:54:23.795Z,59.03
2018-10-09T20:56:52.521Z,57.57
2018-10-09T20:59:21.228Z,56.30
2018-10-09T21:01:49.921Z,61.07
2018-10-09T21:04:18.624Z,56.67
2018-10-09T21:06:47.331Z,59.83
2018-10-09T21:09:16.069Z,56.13
2018-10-09T21:11:44.772Z,55.60
2018-10-09T21:14:13.464Z,57.03
2018-10-09T21:16:42.196Z,57.23
2018-10-09T21:19:10.886Z,57.80
2018-10-09T21:21:39.584Z,55.73
2018-10-09T21:24:08.295Z,55.67
2018-10-09T21:26:36.984Z,55.47
2018-10-09T21:29:05.864Z,58.80
2018-10-09T21:31:34.584Z,52.97
2018-10-09T21:34:03.277Z,54.20
2018-10-09T21:36:32.062Z,54.27
2018-10-09T21:39:00.676Z,56.60
2018-10-09T21:41:29.369Z,62.50
2018-10-09T21:43:58.055Z,56.47
2018-10-09T21:46:26.761Z,55.97
2018-10-09T21:48:55.459Z,56.30
2018-10-09T21:51:24.154Z,55.37
2018-10-09T21:53:52.877Z,58.63
2018-10-09T21:56:21.592Z,54.97
2018-10-09T21:58:50.289Z,56.17
2018-10-09T22:01:18.984Z,55.90
2018-10-09T22:03:47.685Z,58.33
2018-10-09T22:06:16.378Z,57.37
2018-10-09T22:08:45.081Z,53.50
2018-10-09T22:11:13.792Z,53.13
2018-10-09T22:13:42.492Z,53.87
2018-10-09T22:16:11.369Z,54.93
2018-10-09T22:18:40.267Z,52.47
2018-10-09T22:21:08.952Z,54.77
2018-10-09T22:23:37.655Z,54.77
2018-10-09T22:26:06.414Z,52.87
2018-10-09T22:28:35.107Z,57.20
2018-10-09T22:31:03.800Z,53.83
2018-10-09T22:33:32.497Z,53.93
2018-10-09T22:36:01.189Z,55.30
2018-10-09T22:38:29.923Z,53.87
2018-10-09T22:40:58.576Z,52.93
2018-10-09T22:43:27.272Z,53.33
2018-10-09T22:45:55.974Z,55.47
2018-10-09T22:48:24.679Z,55.67
2018-10-09T22:50:53.376Z,52.67
2018-10-09T22:53:22.088Z,55.10
2018-10-09T22:55:50.785Z,53.27
2018-10-09T22:58:19.484Z,53.60
2018-10-09T23:00:48.177Z,55.23
2018-10-09T23:03:16.941Z,54.87
2018-10-09T23:05:45.632Z,54.23
2018-10-09T23:08:14.453Z,53.53
2018-10-09T23:10:43.184Z,56.00
2018-10-09T23:13:11.888Z,53.20
2018-10-09T23:15:40.568Z,52.87
2018-10-09T23:18:09.269Z,52.47
2018-10-09T23:20:37.966Z,53.70
2018-10-09T23:23:06.656Z,52.63
2018-10-09T23:25:35.347Z,53.33
2018-10-09T23:28:04.058Z,53.40
2018-10-09T23:30:32.756Z,53.10
2018-10-09T23:33:01.451Z,55.20
2018-10-09T23:35:30.156Z,55.37
2018-10-09T23:37:58.860Z,56.07
2018-10-09T23:40:27.553Z,53.03
2018-10-09T23:42:56.303Z,53.00
2018-10-09T23:45:24.945Z,53.67
2018-10-09T23:47:59.173Z,51.90
2018-10-09T23:50:27.881Z,53.90
2018-10-09T23:52:56.568Z,52.93
2018-10-09T23:55:25.393Z,52.33
2018-10-09T23:57:54.077Z,55.07
